Topeka, KS (66611)

05:08 AM CST die 02o March, anno 2015 (GMT -0600)
Knollwood | Change Station
CLOSE
Current Station
Personal Weather Stations
Location: Topeka, KS
Elevation: 978 ft
Nearby Weather Stations

Elev 978 ft 39.02 °N, 95.70 °W | Updated 10 minutes ago

Partialiter Nubila
Partialiter Nubila
20.1 °F
Feels Like 20 °F
N
0.0
Ventus Variabilis Ventus from Auster

Hodie
High -- | Low -- °F
--% Chance of Precip.
Yesterday
High -- | Low -- °F
Precip. -- in
6:54 AM 6:16 PM
Waxing Gibbous, 90% visible
Pressio 30.51 in
Visibilitas 7.0 milia passuum
Clouds Serena
Frigus Venti 20 °F
Frigus in quo Ros apparet 18 °F
Umor 91%
Rainfall 0.00 in
Snow Depth Not available.
UV 0 out of 12
Pollen .50 out of 12
Air Quality Not available.
Flu Activity Not available.
METAR KFOE 021053Z AUTO 17003KT 7SM CLR M07/M09 A3047 RMK AO2 SLP329 T10721094

More Conditions Fewer Conditions

Pressio 30.51 in
Visibilitas 7.0 milia passuum
Clouds Serena
Frigus Venti 20 °F
Frigus in quo Ros apparet 18 °F
Umor 91%
Rainfall 0.00 in
Snow Depth Not available.
UV 0 out of 12
Pollen .50 out of 12
Air Quality Not available.
Flu Activity Not available.
METAR KFOE 021053Z AUTO 17003KT 7SM CLR M07/M09 A3047 RMK AO2 SLP329 T10721094

More Conditions Fewer Conditions

10-Day Weather Forecast

Almanac

Astronomy

Mar. 02, 2015 Rise Set
Actual Time
Civil Twilight
Nautical Twilight
Astronomical Twilight
Moon
Length Of Visible Light
Length of Day
Tomorrow will be .
, % of the Moon is Illuminated

Today's Extremes

State Highs State Lows

Community

WunderPhotos

Upload Photos

1,801,756 photos uploaded!

WunderBlogs® & News

Nearby

Air Quality

  Air Quality AQ Index Pollutant
Not available.

Snow Depth

Station Depth Elevation

Earthquake Activity

City Distance Mag. Time & Date
Minimum magnitude displayed is 2.5.

Coastal Water Temperatures

Locus Calor

Nearby Weather Stations